sensor_id;sensor_type;location;lat;lon;timestamp;P1;durP1;ratioP1;P2;durP2;ratioP2
16504;SDS011;8365;51.030;4.696;2024-01-30T00:02:10;18.67;;;10.10;;
16504;SDS011;8365;51.030;4.696;2024-01-30T00:04:40;12.73;;;9.00;;
16504;SDS011;8365;51.030;4.696;2024-01-30T00:07:11;12.67;;;9.23;;
16504;SDS011;8365;51.030;4.696;2024-01-30T00:09:41;11.30;;;8.50;;
16504;SDS011;8365;51.030;4.696;2024-01-30T00:12:12;12.97;;;8.87;;
16504;SDS011;8365;51.030;4.696;2024-01-30T00:14:42;12.47;;;9.23;;
16504;SDS011;8365;51.030;4.696;2024-01-30T00:17:16;13.53;;;8.60;;
16504;SDS011;8365;51.030;4.696;2024-01-30T00:19:46;11.57;;;8.53;;
16504;SDS011;8365;51.030;4.696;2024-01-30T00:22:17;10.43;;;8.40;;
16504;SDS011;8365;51.030;4.696;2024-01-30T00:24:47;12.50;;;8.60;;
16504;SDS011;8365;51.030;4.696;2024-01-30T00:27:18;11.37;;;7.63;;
16504;SDS011;8365;51.030;4.696;2024-01-30T00:29:48;15.27;;;8.57;;
16504;SDS011;8365;51.030;4.696;2024-01-30T00:32:19;12.10;;;7.70;;
16504;SDS011;8365;51.030;4.696;2024-01-30T00:34:49;10.97;;;8.40;;
16504;SDS011;8365;51.030;4.696;2024-01-30T00:37:20;11.23;;;7.80;;
16504;SDS011;8365;51.030;4.696;2024-01-30T00:39:50;10.60;;;8.50;;
16504;SDS011;8365;51.030;4.696;2024-01-30T00:42:21;10.20;;;7.83;;
16504;SDS011;8365;51.030;4.696;2024-01-30T00:44:53;9.40;;;7.97;;
16504;SDS011;8365;51.030;4.696;2024-01-30T00:47:24;12.03;;;7.53;;
16504;SDS011;8365;51.030;4.696;2024-01-30T00:49:54;12.63;;;8.17;;
16504;SDS011;8365;51.030;4.696;2024-01-30T00:52:29;12.00;;;7.73;;
16504;SDS011;8365;51.030;4.696;2024-01-30T00:55:00;8.70;;;7.47;;
16504;SDS011;8365;51.030;4.696;2024-01-30T00:57:31;10.17;;;7.63;;
16504;SDS011;8365;51.030;4.696;2024-01-30T01:00:02;9.13;;;7.57;;
16504;SDS011;8365;51.030;4.696;2024-01-30T01:02:33;9.07;;;7.70;;
16504;SDS011;8365;51.030;4.696;2024-01-30T01:05:04;10.20;;;7.60;;
16504;SDS011;8365;51.030;4.696;2024-01-30T01:07:35;10.00;;;7.30;;
16504;SDS011;8365;51.030;4.696;2024-01-30T01:10:06;10.47;;;6.97;;
16504;SDS011;8365;51.030;4.696;2024-01-30T01:12:37;9.93;;;7.00;;
16504;SDS011;8365;51.030;4.696;2024-01-30T01:15:07;8.97;;;7.00;;
16504;SDS011;8365;51.030;4.696;2024-01-30T01:17:39;8.73;;;7.27;;
16504;SDS011;8365;51.030;4.696;2024-01-30T01:20:11;9.73;;;7.70;;
16504;SDS011;8365;51.030;4.696;2024-01-30T01:22:41;11.37;;;7.83;;
16504;SDS011;8365;51.030;4.696;2024-01-30T01:25:12;8.57;;;7.57;;
16504;SDS011;8365;51.030;4.696;2024-01-30T01:27:42;10.27;;;7.27;;
16504;SDS011;8365;51.030;4.696;2024-01-30T01:30:14;10.00;;;6.93;;
16504;SDS011;8365;51.030;4.696;2024-01-30T01:32:51;12.30;;;7.47;;
16504;SDS011;8365;51.030;4.696;2024-01-30T01:35:24;9.60;;;7.00;;
16504;SDS011;8365;51.030;4.696;2024-01-30T01:37:55;10.83;;;7.50;;
16504;SDS011;8365;51.030;4.696;2024-01-30T01:40:26;9.73;;;7.33;;
16504;SDS011;8365;51.030;4.696;2024-01-30T01:42:57;9.87;;;7.43;;
16504;SDS011;8365;51.030;4.696;2024-01-30T01:45:28;9.27;;;6.53;;
16504;SDS011;8365;51.030;4.696;2024-01-30T01:47:58;9.53;;;6.67;;
16504;SDS011;8365;51.030;4.696;2024-01-30T01:50:31;7.27;;;6.37;;
16504;SDS011;8365;51.030;4.696;2024-01-30T01:53:02;8.50;;;6.77;;
16504;SDS011;8365;51.030;4.696;2024-01-30T01:55:33;8.83;;;7.20;;
16504;SDS011;8365;51.030;4.696;2024-01-30T01:58:05;7.30;;;6.60;;
16504;SDS011;8365;51.030;4.696;2024-01-30T02:00:36;7.03;;;6.33;;
16504;SDS011;8365;51.030;4.696;2024-01-30T02:03:12;7.90;;;7.03;;
16504;SDS011;8365;51.030;4.696;2024-01-30T02:05:46;8.57;;;6.77;;
16504;SDS011;8365;51.030;4.696;2024-01-30T02:08:16;9.27;;;6.87;;
16504;SDS011;8365;51.030;4.696;2024-01-30T02:10:47;9.07;;;6.77;;
16504;SDS011;8365;51.030;4.696;2024-01-30T02:13:18;7.13;;;6.17;;
16504;SDS011;8365;51.030;4.696;2024-01-30T02:15:51;10.07;;;7.20;;
16504;SDS011;8365;51.030;4.696;2024-01-30T02:18:24;8.10;;;6.67;;
16504;SDS011;8365;51.030;4.696;2024-01-30T02:20:56;7.90;;;6.87;;
16504;SDS011;8365;51.030;4.696;2024-01-30T02:23:28;7.90;;;6.50;;
16504;SDS011;8365;51.030;4.696;2024-01-30T02:26:03;8.27;;;6.50;;
16504;SDS011;8365;51.030;4.696;2024-01-30T02:28:36;6.93;;;6.23;;
16504;SDS011;8365;51.030;4.696;2024-01-30T02:31:06;7.73;;;6.93;;
16504;SDS011;8365;51.030;4.696;2024-01-30T02:33:37;7.30;;;6.40;;
16504;SDS011;8365;51.030;4.696;2024-01-30T02:36:07;7.87;;;6.57;;
16504;SDS011;8365;51.030;4.696;2024-01-30T02:38:38;10.37;;;6.90;;
16504;SDS011;8365;51.030;4.696;2024-01-30T02:41:08;8.37;;;6.80;;
16504;SDS011;8365;51.030;4.696;2024-01-30T02:43:39;8.47;;;6.70;;
16504;SDS011;8365;51.030;4.696;2024-01-30T02:46:09;7.53;;;6.73;;
16504;SDS011;8365;51.030;4.696;2024-01-30T02:48:40;9.10;;;6.73;;
16504;SDS011;8365;51.030;4.696;2024-01-30T02:51:10;8.60;;;6.60;;
16504;SDS011;8365;51.030;4.696;2024-01-30T02:53:46;7.23;;;6.30;;
16504;SDS011;8365;51.030;4.696;2024-01-30T02:56:16;8.60;;;6.73;;
16504;SDS011;8365;51.030;4.696;2024-01-30T02:58:47;8.30;;;6.37;;
16504;SDS011;8365;51.030;4.696;2024-01-30T03:01:17;9.30;;;6.93;;
16504;SDS011;8365;51.030;4.696;2024-01-30T03:03:48;8.23;;;7.00;;
16504;SDS011;8365;51.030;4.696;2024-01-30T03:06:18;7.30;;;6.37;;
16504;SDS011;8365;51.030;4.696;2024-01-30T03:08:50;7.40;;;6.43;;
16504;SDS011;8365;51.030;4.696;2024-01-30T03:11:20;7.40;;;6.70;;
16504;SDS011;8365;51.030;4.696;2024-01-30T03:13:53;7.13;;;6.30;;
16504;SDS011;8365;51.030;4.696;2024-01-30T03:16:26;7.93;;;6.10;;
16504;SDS011;8365;51.030;4.696;2024-01-30T03:18:56;8.60;;;7.00;;
16504;SDS011;8365;51.030;4.696;2024-01-30T03:21:27;8.33;;;6.60;;
16504;SDS011;8365;51.030;4.696;2024-01-30T03:24:00;7.17;;;6.37;;
16504;SDS011;8365;51.030;4.696;2024-01-30T03:26:30;9.70;;;6.60;;
16504;SDS011;8365;51.030;4.696;2024-01-30T03:29:01;7.33;;;6.27;;
16504;SDS011;8365;51.030;4.696;2024-01-30T03:31:31;8.10;;;6.53;;
16504;SDS011;8365;51.030;4.696;2024-01-30T03:34:02;6.80;;;6.20;;
16504;SDS011;8365;51.030;4.696;2024-01-30T03:36:33;7.10;;;5.83;;
16504;SDS011;8365;51.030;4.696;2024-01-30T03:39:04;7.30;;;5.93;;
16504;SDS011;8365;51.030;4.696;2024-01-30T03:41:34;7.33;;;5.77;;
16504;SDS011;8365;51.030;4.696;2024-01-30T03:44:05;6.50;;;5.63;;
16504;SDS011;8365;51.030;4.696;2024-01-30T03:46:36;6.30;;;5.70;;
16504;SDS011;8365;51.030;4.696;2024-01-30T03:49:09;7.40;;;6.43;;
16504;SDS011;8365;51.030;4.696;2024-01-30T03:51:40;7.37;;;6.67;;
16504;SDS011;8365;51.030;4.696;2024-01-30T03:54:10;9.50;;;6.20;;
16504;SDS011;8365;51.030;4.696;2024-01-30T03:56:40;7.53;;;6.10;;
16504;SDS011;8365;51.030;4.696;2024-01-30T03:59:11;9.30;;;6.03;;
16504;SDS011;8365;51.030;4.696;2024-01-30T04:01:42;7.30;;;6.10;;
16504;SDS011;8365;51.030;4.696;2024-01-30T04:04:12;7.03;;;5.97;;
16504;SDS011;8365;51.030;4.696;2024-01-30T04:06:43;8.93;;;6.20;;
16504;SDS011;8365;51.030;4.696;2024-01-30T04:09:14;6.20;;;5.60;;
16504;SDS011;8365;51.030;4.696;2024-01-30T04:11:45;7.93;;;6.17;;
16504;SDS011;8365;51.030;4.696;2024-01-30T04:14:15;7.73;;;6.53;;
16504;SDS011;8365;51.030;4.696;2024-01-30T04:16:46;6.73;;;5.77;;
16504;SDS011;8365;51.030;4.696;2024-01-30T04:19:16;6.67;;;5.97;;
16504;SDS011;8365;51.030;4.696;2024-01-30T04:21:46;7.20;;;6.03;;
16504;SDS011;8365;51.030;4.696;2024-01-30T04:24:17;7.13;;;6.13;;
16504;SDS011;8365;51.030;4.696;2024-01-30T04:26:50;6.73;;;6.03;;
16504;SDS011;8365;51.030;4.696;2024-01-30T04:29:20;6.73;;;6.03;;
16504;SDS011;8365;51.030;4.696;2024-01-30T04:31:52;7.07;;;6.10;;
16504;SDS011;8365;51.030;4.696;2024-01-30T04:34:23;7.90;;;6.63;;
16504;SDS011;8365;51.030;4.696;2024-01-30T04:36:53;6.80;;;5.43;;
16504;SDS011;8365;51.030;4.696;2024-01-30T04:39:23;6.57;;;5.97;;
16504;SDS011;8365;51.030;4.696;2024-01-30T04:41:54;7.57;;;6.60;;
16504;SDS011;8365;51.030;4.696;2024-01-30T04:44:25;7.97;;;5.97;;
16504;SDS011;8365;51.030;4.696;2024-01-30T04:46:55;6.90;;;5.93;;
16504;SDS011;8365;51.030;4.696;2024-01-30T04:49:29;7.23;;;6.30;;
16504;SDS011;8365;51.030;4.696;2024-01-30T04:51:59;7.47;;;6.10;;
16504;SDS011;8365;51.030;4.696;2024-01-30T04:54:29;8.03;;;6.47;;
16504;SDS011;8365;51.030;4.696;2024-01-30T04:57:00;7.00;;;6.07;;
16504;SDS011;8365;51.030;4.696;2024-01-30T04:59:31;7.00;;;6.03;;
16504;SDS011;8365;51.030;4.696;2024-01-30T05:02:02;7.47;;;5.93;;
16504;SDS011;8365;51.030;4.696;2024-01-30T05:04:34;7.00;;;6.00;;
16504;SDS011;8365;51.030;4.696;2024-01-30T05:07:05;8.63;;;6.07;;
16504;SDS011;8365;51.030;4.696;2024-01-30T05:09:35;7.10;;;6.17;;
16504;SDS011;8365;51.030;4.696;2024-01-30T05:12:08;7.40;;;6.47;;
16504;SDS011;8365;51.030;4.696;2024-01-30T05:14:41;9.33;;;6.43;;
16504;SDS011;8365;51.030;4.696;2024-01-30T05:17:11;6.77;;;5.77;;
16504;SDS011;8365;51.030;4.696;2024-01-30T05:19:43;8.40;;;6.33;;
16504;SDS011;8365;51.030;4.696;2024-01-30T05:22:14;8.27;;;6.20;;
16504;SDS011;8365;51.030;4.696;2024-01-30T05:24:45;7.90;;;6.30;;
16504;SDS011;8365;51.030;4.696;2024-01-30T05:27:18;8.07;;;6.40;;
16504;SDS011;8365;51.030;4.696;2024-01-30T05:29:48;6.90;;;6.17;;
16504;SDS011;8365;51.030;4.696;2024-01-30T05:32:19;9.87;;;6.67;;
16504;SDS011;8365;51.030;4.696;2024-01-30T05:34:50;8.73;;;6.30;;
16504;SDS011;8365;51.030;4.696;2024-01-30T05:37:20;7.43;;;6.43;;
16504;SDS011;8365;51.030;4.696;2024-01-30T05:39:51;9.03;;;6.77;;
16504;SDS011;8365;51.030;4.696;2024-01-30T05:42:21;7.80;;;6.83;;
16504;SDS011;8365;51.030;4.696;2024-01-30T05:44:52;9.83;;;6.83;;
16504;SDS011;8365;51.030;4.696;2024-01-30T05:47:25;7.07;;;6.20;;
16504;SDS011;8365;51.030;4.696;2024-01-30T05:49:55;10.03;;;6.87;;
16504;SDS011;8365;51.030;4.696;2024-01-30T05:52:26;8.87;;;6.80;;
16504;SDS011;8365;51.030;4.696;2024-01-30T05:54:58;6.97;;;6.20;;
16504;SDS011;8365;51.030;4.696;2024-01-30T05:57:29;8.63;;;6.83;;
16504;SDS011;8365;51.030;4.696;2024-01-30T05:59:59;9.70;;;7.37;;
16504;SDS011;8365;51.030;4.696;2024-01-30T06:02:30;9.70;;;6.80;;
16504;SDS011;8365;51.030;4.696;2024-01-30T06:05:01;9.30;;;6.53;;
16504;SDS011;8365;51.030;4.696;2024-01-30T06:07:34;8.37;;;6.73;;
16504;SDS011;8365;51.030;4.696;2024-01-30T06:10:04;8.80;;;6.87;;
16504;SDS011;8365;51.030;4.696;2024-01-30T06:12:35;8.77;;;6.93;;
16504;SDS011;8365;51.030;4.696;2024-01-30T06:15:06;10.53;;;7.20;;
16504;SDS011;8365;51.030;4.696;2024-01-30T06:17:37;8.50;;;7.00;;
16504;SDS011;8365;51.030;4.696;2024-01-30T06:20:07;8.37;;;7.03;;
16504;SDS011;8365;51.030;4.696;2024-01-30T06:22:38;8.57;;;7.13;;
16504;SDS011;8365;51.030;4.696;2024-01-30T06:25:08;9.53;;;7.07;;
16504;SDS011;8365;51.030;4.696;2024-01-30T06:27:40;7.57;;;6.77;;
16504;SDS011;8365;51.030;4.696;2024-01-30T06:30:10;12.70;;;6.77;;
16504;SDS011;8365;51.030;4.696;2024-01-30T06:32:41;7.77;;;6.37;;
16504;SDS011;8365;51.030;4.696;2024-01-30T06:35:12;7.33;;;6.63;;
16504;SDS011;8365;51.030;4.696;2024-01-30T06:37:42;10.77;;;6.70;;
16504;SDS011;8365;51.030;4.696;2024-01-30T06:40:13;8.53;;;7.10;;
16504;SDS011;8365;51.030;4.696;2024-01-30T06:42:43;8.00;;;7.03;;
16504;SDS011;8365;51.030;4.696;2024-01-30T06:45:14;10.97;;;6.97;;
16504;SDS011;8365;51.030;4.696;2024-01-30T06:47:45;8.83;;;6.67;;
16504;SDS011;8365;51.030;4.696;2024-01-30T06:50:16;9.50;;;7.00;;
16504;SDS011;8365;51.030;4.696;2024-01-30T06:52:46;7.93;;;7.13;;
16504;SDS011;8365;51.030;4.696;2024-01-30T06:55:17;9.10;;;7.10;;
16504;SDS011;8365;51.030;4.696;2024-01-30T06:57:48;9.13;;;7.40;;
16504;SDS011;8365;51.030;4.696;2024-01-30T07:00:18;7.93;;;7.13;;
16504;SDS011;8365;51.030;4.696;2024-01-30T07:02:52;7.53;;;6.33;;
16504;SDS011;8365;51.030;4.696;2024-01-30T07:05:23;9.07;;;7.83;;
16504;SDS011;8365;51.030;4.696;2024-01-30T07:07:53;9.77;;;8.07;;
16504;SDS011;8365;51.030;4.696;2024-01-30T07:10:24;9.93;;;7.30;;
16504;SDS011;8365;51.030;4.696;2024-01-30T07:12:54;11.10;;;7.40;;
16504;SDS011;8365;51.030;4.696;2024-01-30T07:15:25;11.10;;;6.97;;
16504;SDS011;8365;51.030;4.696;2024-01-30T07:17:55;12.37;;;7.10;;
16504;SDS011;8365;51.030;4.696;2024-01-30T07:20:25;9.17;;;7.73;;
16504;SDS011;8365;51.030;4.696;2024-01-30T07:22:56;8.83;;;7.00;;
16504;SDS011;8365;51.030;4.696;2024-01-30T07:25:26;8.97;;;7.30;;
16504;SDS011;8365;51.030;4.696;2024-01-30T07:27:57;9.73;;;8.03;;
16504;SDS011;8365;51.030;4.696;2024-01-30T07:30:28;8.30;;;7.43;;
16504;SDS011;8365;51.030;4.696;2024-01-30T07:32:59;8.20;;;6.97;;
16504;SDS011;8365;51.030;4.696;2024-01-30T07:35:30;8.60;;;7.00;;
16504;SDS011;8365;51.030;4.696;2024-01-30T07:38:00;8.67;;;6.63;;
16504;SDS011;8365;51.030;4.696;2024-01-30T07:40:33;8.47;;;7.57;;
16504;SDS011;8365;51.030;4.696;2024-01-30T07:43:03;10.33;;;7.70;;
16504;SDS011;8365;51.030;4.696;2024-01-30T07:45:34;11.00;;;6.90;;
16504;SDS011;8365;51.030;4.696;2024-01-30T07:48:05;8.30;;;7.00;;
16504;SDS011;8365;51.030;4.696;2024-01-30T07:50:36;8.37;;;7.40;;
16504;SDS011;8365;51.030;4.696;2024-01-30T07:53:06;8.90;;;7.67;;
16504;SDS011;8365;51.030;4.696;2024-01-30T07:55:37;7.53;;;6.83;;
16504;SDS011;8365;51.030;4.696;2024-01-30T07:58:07;8.70;;;7.13;;
16504;SDS011;8365;51.030;4.696;2024-01-30T08:00:38;8.83;;;7.23;;
16504;SDS011;8365;51.030;4.696;2024-01-30T08:03:09;9.03;;;7.30;;
16504;SDS011;8365;51.030;4.696;2024-01-30T08:05:39;9.60;;;7.53;;
16504;SDS011;8365;51.030;4.696;2024-01-30T08:08:09;11.27;;;6.83;;
16504;SDS011;8365;51.030;4.696;2024-01-30T08:10:40;7.80;;;6.87;;
16504;SDS011;8365;51.030;4.696;2024-01-30T08:13:11;8.33;;;7.00;;
16504;SDS011;8365;51.030;4.696;2024-01-30T08:15:41;10.17;;;7.63;;
16504;SDS011;8365;51.030;4.696;2024-01-30T08:18:11;10.47;;;7.70;;
16504;SDS011;8365;51.030;4.696;2024-01-30T08:20:42;8.70;;;7.63;;
16504;SDS011;8365;51.030;4.696;2024-01-30T08:23:12;11.97;;;7.00;;
16504;SDS011;8365;51.030;4.696;2024-01-30T08:25:43;9.57;;;7.40;;
16504;SDS011;8365;51.030;4.696;2024-01-30T08:28:13;9.03;;;7.13;;
16504;SDS011;8365;51.030;4.696;2024-01-30T08:30:44;9.97;;;7.23;;
16504;SDS011;8365;51.030;4.696;2024-01-30T08:33:17;13.07;;;8.30;;
16504;SDS011;8365;51.030;4.696;2024-01-30T08:35:48;9.20;;;7.60;;
16504;SDS011;8365;51.030;4.696;2024-01-30T08:38:19;8.27;;;7.43;;
16504;SDS011;8365;51.030;4.696;2024-01-30T08:40:49;9.53;;;7.53;;
16504;SDS011;8365;51.030;4.696;2024-01-30T08:43:20;8.77;;;7.87;;
16504;SDS011;8365;51.030;4.696;2024-01-30T08:45:50;10.47;;;8.07;;
16504;SDS011;8365;51.030;4.696;2024-01-30T08:48:20;8.63;;;7.70;;
16504;SDS011;8365;51.030;4.696;2024-01-30T08:50:53;9.27;;;7.40;;
16504;SDS011;8365;51.030;4.696;2024-01-30T08:53:24;10.03;;;7.70;;
16504;SDS011;8365;51.030;4.696;2024-01-30T08:55:54;11.40;;;8.67;;
16504;SDS011;8365;51.030;4.696;2024-01-30T08:58:29;11.03;;;8.50;;
16504;SDS011;8365;51.030;4.696;2024-01-30T09:01:02;10.23;;;8.50;;
16504;SDS011;8365;51.030;4.696;2024-01-30T09:03:35;10.00;;;8.07;;
16504;SDS011;8365;51.030;4.696;2024-01-30T09:06:09;11.30;;;8.47;;
16504;SDS011;8365;51.030;4.696;2024-01-30T09:08:42;11.37;;;7.90;;
16504;SDS011;8365;51.030;4.696;2024-01-30T09:11:13;8.80;;;7.67;;
16504;SDS011;8365;51.030;4.696;2024-01-30T09:13:44;10.53;;;8.10;;
16504;SDS011;8365;51.030;4.696;2024-01-30T09:16:15;11.53;;;7.87;;
16504;SDS011;8365;51.030;4.696;2024-01-30T09:18:46;13.23;;;8.67;;
16504;SDS011;8365;51.030;4.696;2024-01-30T09:21:16;9.70;;;8.27;;
16504;SDS011;8365;51.030;4.696;2024-01-30T09:23:47;11.43;;;8.13;;
16504;SDS011;8365;51.030;4.696;2024-01-30T09:26:17;11.67;;;7.67;;
16504;SDS011;8365;51.030;4.696;2024-01-30T09:28:50;10.03;;;8.10;;
16504;SDS011;8365;51.030;4.696;2024-01-30T09:31:20;11.53;;;8.30;;
16504;SDS011;8365;51.030;4.696;2024-01-30T09:33:51;16.47;;;8.57;;
16504;SDS011;8365;51.030;4.696;2024-01-30T09:36:23;11.50;;;7.17;;
16504;SDS011;8365;51.030;4.696;2024-01-30T09:38:54;11.63;;;8.20;;
16504;SDS011;8365;51.030;4.696;2024-01-30T09:41:25;12.27;;;8.20;;
16504;SDS011;8365;51.030;4.696;2024-01-30T09:43:56;11.13;;;7.87;;
16504;SDS011;8365;51.030;4.696;2024-01-30T09:46:27;15.70;;;7.87;;
16504;SDS011;8365;51.030;4.696;2024-01-30T09:48:58;11.90;;;7.93;;
16504;SDS011;8365;51.030;4.696;2024-01-30T09:51:30;15.33;;;8.53;;
16504;SDS011;8365;51.030;4.696;2024-01-30T09:54:02;9.83;;;7.43;;
16504;SDS011;8365;51.030;4.696;2024-01-30T09:56:33;10.40;;;8.67;;
16504;SDS011;8365;51.030;4.696;2024-01-30T09:59:03;11.13;;;8.03;;
16504;SDS011;8365;51.030;4.696;2024-01-30T10:01:36;11.57;;;8.40;;
16504;SDS011;8365;51.030;4.696;2024-01-30T10:04:07;11.40;;;8.77;;
16504;SDS011;8365;51.030;4.696;2024-01-30T10:06:37;12.67;;;7.73;;
16504;SDS011;8365;51.030;4.696;2024-01-30T10:09:08;13.00;;;9.27;;
16504;SDS011;8365;51.030;4.696;2024-01-30T10:11:39;12.67;;;9.60;;
16504;SDS011;8365;51.030;4.696;2024-01-30T10:14:09;12.70;;;9.37;;
16504;SDS011;8365;51.030;4.696;2024-01-30T10:16:42;14.23;;;9.80;;
16504;SDS011;8365;51.030;4.696;2024-01-30T10:19:16;12.83;;;9.80;;
16504;SDS011;8365;51.030;4.696;2024-01-30T10:21:46;14.50;;;9.90;;
16504;SDS011;8365;51.030;4.696;2024-01-30T10:24:17;16.07;;;11.03;;
16504;SDS011;8365;51.030;4.696;2024-01-30T10:26:47;12.17;;;9.70;;
16504;SDS011;8365;51.030;4.696;2024-01-30T10:29:20;15.97;;;11.93;;
16504;SDS011;8365;51.030;4.696;2024-01-30T10:32:00;15.83;;;10.67;;
16504;SDS011;8365;51.030;4.696;2024-01-30T10:34:32;15.57;;;10.80;;
16504;SDS011;8365;51.030;4.696;2024-01-30T10:37:10;12.50;;;10.67;;
16504;SDS011;8365;51.030;4.696;2024-01-30T10:39:47;14.57;;;11.33;;
16504;SDS011;8365;51.030;4.696;2024-01-30T10:42:18;15.07;;;11.73;;
16504;SDS011;8365;51.030;4.696;2024-01-30T10:47:52;16.03;;;11.60;;
16504;SDS011;8365;51.030;4.696;2024-01-30T10:50:28;17.20;;;12.37;;
16504;SDS011;8365;51.030;4.696;2024-01-30T10:53:03;14.97;;;13.37;;
16504;SDS011;8365;51.030;4.696;2024-01-30T10:55:34;16.07;;;11.53;;
16504;SDS011;8365;51.030;4.696;2024-01-30T10:58:06;17.53;;;12.93;;
16504;SDS011;8365;51.030;4.696;2024-01-30T11:00:38;20.27;;;12.03;;
16504;SDS011;8365;51.030;4.696;2024-01-30T11:03:09;17.73;;;11.20;;
16504;SDS011;8365;51.030;4.696;2024-01-30T11:05:42;21.00;;;15.20;;
16504;SDS011;8365;51.030;4.696;2024-01-30T11:08:13;17.40;;;13.43;;
16504;SDS011;8365;51.030;4.696;2024-01-30T11:10:44;14.93;;;11.63;;
16504;SDS011;8365;51.030;4.696;2024-01-30T11:13:16;11.83;;;9.30;;
16504;SDS011;8365;51.030;4.696;2024-01-30T11:15:48;10.07;;;7.30;;
16504;SDS011;8365;51.030;4.696;2024-01-30T11:18:22;12.23;;;5.90;;
16504;SDS011;8365;51.030;4.696;2024-01-30T11:20:56;8.03;;;3.77;;
16504;SDS011;8365;51.030;4.696;2024-01-30T11:23:33;6.67;;;4.00;;
16504;SDS011;8365;51.030;4.696;2024-01-30T11:26:03;6.37;;;3.60;;
16504;SDS011;8365;51.030;4.696;2024-01-30T11:28:34;6.27;;;3.30;;
16504;SDS011;8365;51.030;4.696;2024-01-30T11:31:05;5.07;;;2.80;;
16504;SDS011;8365;51.030;4.696;2024-01-30T11:33:39;4.73;;;2.50;;
16504;SDS011;8365;51.030;4.696;2024-01-30T11:36:10;4.50;;;2.43;;
16504;SDS011;8365;51.030;4.696;2024-01-30T11:38:43;3.17;;;2.30;;
16504;SDS011;8365;51.030;4.696;2024-01-30T11:41:15;3.43;;;2.10;;
16504;SDS011;8365;51.030;4.696;2024-01-30T11:43:54;5.17;;;2.50;;
16504;SDS011;8365;51.030;4.696;2024-01-30T11:46:27;4.40;;;2.10;;
16504;SDS011;8365;51.030;4.696;2024-01-30T11:48:57;3.73;;;1.93;;
16504;SDS011;8365;51.030;4.696;2024-01-30T11:51:31;3.50;;;1.90;;
16504;SDS011;8365;51.030;4.696;2024-01-30T11:54:02;5.90;;;2.60;;
16504;SDS011;8365;51.030;4.696;2024-01-30T11:56:33;3.67;;;2.40;;
16504;SDS011;8365;51.030;4.696;2024-01-30T11:59:04;3.20;;;2.60;;
16504;SDS011;8365;51.030;4.696;2024-01-30T12:01:34;4.53;;;2.57;;
16504;SDS011;8365;51.030;4.696;2024-01-30T12:04:06;2.77;;;1.90;;
16504;SDS011;8365;51.030;4.696;2024-01-30T12:06:39;3.60;;;1.30;;
16504;SDS011;8365;51.030;4.696;2024-01-30T12:09:10;3.03;;;1.33;;
16504;SDS011;8365;51.030;4.696;2024-01-30T12:11:46;4.93;;;1.60;;
16504;SDS011;8365;51.030;4.696;2024-01-30T12:14:17;3.30;;;1.93;;
16504;SDS011;8365;51.030;4.696;2024-01-30T12:16:49;1.80;;;1.70;;
16504;SDS011;8365;51.030;4.696;2024-01-30T12:19:21;6.17;;;1.60;;
16504;SDS011;8365;51.030;4.696;2024-01-30T12:21:56;2.80;;;2.03;;
16504;SDS011;8365;51.030;4.696;2024-01-30T12:24:28;2.13;;;1.27;;
16504;SDS011;8365;51.030;4.696;2024-01-30T12:27:00;2.70;;;1.80;;
16504;SDS011;8365;51.030;4.696;2024-01-30T12:29:33;3.50;;;2.10;;
16504;SDS011;8365;51.030;4.696;2024-01-30T12:32:04;3.10;;;1.20;;
16504;SDS011;8365;51.030;4.696;2024-01-30T12:34:39;3.57;;;2.00;;
16504;SDS011;8365;51.030;4.696;2024-01-30T12:37:11;2.23;;;1.03;;
16504;SDS011;8365;51.030;4.696;2024-01-30T12:39:42;1.97;;;1.50;;
16504;SDS011;8365;51.030;4.696;2024-01-30T12:42:13;3.00;;;1.30;;
16504;SDS011;8365;51.030;4.696;2024-01-30T12:44:46;1.37;;;1.27;;
16504;SDS011;8365;51.030;4.696;2024-01-30T12:47:22;2.53;;;1.03;;
16504;SDS011;8365;51.030;4.696;2024-01-30T12:49:53;1.63;;;1.33;;
16504;SDS011;8365;51.030;4.696;2024-01-30T12:52:23;2.63;;;1.37;;
16504;SDS011;8365;51.030;4.696;2024-01-30T12:54:54;4.77;;;2.03;;
16504;SDS011;8365;51.030;4.696;2024-01-30T12:57:27;4.53;;;1.20;;
16504;SDS011;8365;51.030;4.696;2024-01-30T13:00:00;3.97;;;1.90;;
16504;SDS011;8365;51.030;4.696;2024-01-30T13:02:30;5.17;;;2.10;;
16504;SDS011;8365;51.030;4.696;2024-01-30T13:05:06;2.50;;;1.80;;
16504;SDS011;8365;51.030;4.696;2024-01-30T13:07:37;3.40;;;1.97;;
16504;SDS011;8365;51.030;4.696;2024-01-30T13:10:08;2.37;;;1.43;;
16504;SDS011;8365;51.030;4.696;2024-01-30T13:12:38;4.93;;;2.10;;
16504;SDS011;8365;51.030;4.696;2024-01-30T13:15:09;2.73;;;1.77;;
16504;SDS011;8365;51.030;4.696;2024-01-30T13:17:41;3.47;;;1.60;;
16504;SDS011;8365;51.030;4.696;2024-01-30T13:20:13;1.57;;;1.43;;
16504;SDS011;8365;51.030;4.696;2024-01-30T13:22:49;5.10;;;1.97;;
16504;SDS011;8365;51.030;4.696;2024-01-30T13:25:22;3.67;;;1.50;;
16504;SDS011;8365;51.030;4.696;2024-01-30T13:27:53;3.60;;;1.37;;
16504;SDS011;8365;51.030;4.696;2024-01-30T13:30:23;3.97;;;1.40;;
16504;SDS011;8365;51.030;4.696;2024-01-30T13:32:56;2.13;;;1.40;;
16504;SDS011;8365;51.030;4.696;2024-01-30T13:35:27;2.37;;;1.37;;
16504;SDS011;8365;51.030;4.696;2024-01-30T13:37:57;3.23;;;1.50;;
16504;SDS011;8365;51.030;4.696;2024-01-30T13:40:28;2.97;;;1.37;;
16504;SDS011;8365;51.030;4.696;2024-01-30T13:43:01;2.13;;;1.47;;
16504;SDS011;8365;51.030;4.696;2024-01-30T13:45:31;2.23;;;1.40;;
16504;SDS011;8365;51.030;4.696;2024-01-30T13:48:02;4.07;;;1.47;;
16504;SDS011;8365;51.030;4.696;2024-01-30T13:50:33;3.00;;;1.40;;
16504;SDS011;8365;51.030;4.696;2024-01-30T13:53:03;2.70;;;1.40;;
16504;SDS011;8365;51.030;4.696;2024-01-30T13:55:36;3.37;;;1.43;;
16504;SDS011;8365;51.030;4.696;2024-01-30T13:58:08;6.67;;;1.77;;
16504;SDS011;8365;51.030;4.696;2024-01-30T14:00:38;3.40;;;1.73;;
16504;SDS011;8365;51.030;4.696;2024-01-30T14:03:09;3.70;;;1.67;;
16504;SDS011;8365;51.030;4.696;2024-01-30T14:05:42;4.17;;;1.80;;
16504;SDS011;8365;51.030;4.696;2024-01-30T14:08:12;9.27;;;2.27;;
16504;SDS011;8365;51.030;4.696;2024-01-30T14:10:43;5.27;;;1.73;;
16504;SDS011;8365;51.030;4.696;2024-01-30T14:13:13;6.07;;;2.47;;
16504;SDS011;8365;51.030;4.696;2024-01-30T14:15:44;7.70;;;2.30;;
16504;SDS011;8365;51.030;4.696;2024-01-30T14:18:14;2.60;;;2.17;;
16504;SDS011;8365;51.030;4.696;2024-01-30T14:20:45;5.33;;;2.30;;
16504;SDS011;8365;51.030;4.696;2024-01-30T14:23:17;4.80;;;2.27;;
16504;SDS011;8365;51.030;4.696;2024-01-30T14:25:47;3.53;;;2.30;;
16504;SDS011;8365;51.030;4.696;2024-01-30T14:28:18;5.73;;;1.90;;
16504;SDS011;8365;51.030;4.696;2024-01-30T14:30:49;4.40;;;2.07;;
16504;SDS011;8365;51.030;4.696;2024-01-30T14:33:19;2.30;;;1.90;;
16504;SDS011;8365;51.030;4.696;2024-01-30T14:35:50;14.97;;;2.77;;
16504;SDS011;8365;51.030;4.696;2024-01-30T14:38:20;6.00;;;1.83;;
16504;SDS011;8365;51.030;4.696;2024-01-30T14:40:51;2.97;;;1.43;;
16504;SDS011;8365;51.030;4.696;2024-01-30T14:43:21;7.30;;;1.93;;
16504;SDS011;8365;51.030;4.696;2024-01-30T14:45:52;5.43;;;2.30;;
16504;SDS011;8365;51.030;4.696;2024-01-30T14:48:22;4.50;;;2.50;;
16504;SDS011;8365;51.030;4.696;2024-01-30T14:50:53;5.07;;;2.40;;
16504;SDS011;8365;51.030;4.696;2024-01-30T14:53:23;3.40;;;1.80;;
16504;SDS011;8365;51.030;4.696;2024-01-30T14:55:54;3.30;;;2.00;;
16504;SDS011;8365;51.030;4.696;2024-01-30T14:58:24;4.77;;;1.67;;
16504;SDS011;8365;51.030;4.696;2024-01-30T15:00:55;4.97;;;2.10;;
16504;SDS011;8365;51.030;4.696;2024-01-30T15:03:27;5.30;;;1.80;;
16504;SDS011;8365;51.030;4.696;2024-01-30T15:05:58;5.43;;;2.30;;
16504;SDS011;8365;51.030;4.696;2024-01-30T15:08:29;4.13;;;2.00;;
16504;SDS011;8365;51.030;4.696;2024-01-30T15:10:59;2.70;;;1.90;;
16504;SDS011;8365;51.030;4.696;2024-01-30T15:13:34;4.03;;;2.10;;
16504;SDS011;8365;51.030;4.696;2024-01-30T15:16:04;3.67;;;2.30;;
16504;SDS011;8365;51.030;4.696;2024-01-30T15:18:35;4.37;;;2.30;;
16504;SDS011;8365;51.030;4.696;2024-01-30T15:21:09;4.87;;;2.37;;
16504;SDS011;8365;51.030;4.696;2024-01-30T15:23:39;2.50;;;2.30;;
16504;SDS011;8365;51.030;4.696;2024-01-30T15:26:14;4.33;;;2.60;;